TFFFMDCY

Guest
Details From TFFF - Martinique/Aime Cesaire Intl
To MDCY - Samana El Catey International
Flight Number -
Tags generated
Created
Modified
Stats Distance 587 nm / 1,087 km
Max Altitude 34,000 ft / 10,363 m
Waypoints 13
Social Downloads 1
Likes 0
Share VATSIM

Download

Looking for another format? Having issues loading an existing format? Contact us
Advertisement - Login to hide

Notes

Basic altitude profile: - Ascent Rate: 2500ft/min - Ascent Speed: 250kts - Cruise Altitude: 24000ft - Cruise Speed: 340kts - Descent Rate: 1500ft/min - Descent Speed: 250kts Options: - Use NATs: yes - Use PACOTS: yes - Use low airways: yes - Use high airways: yes

Route

TFFF FOF A555 DUNTA UA555 ILURI A555 TUUNA RTE4 BQN A636 KATOK MDCY

ID Type Via Altitude Latitude Longitude Leg Dist Tot Dist Heading (true) Name
O TFFF APT - 0 ft / 0 m 14.59103˚ -61.00317˚ - 0 nm - Martinique/Aime Cesaire Intl
FOF VOR - 400 ft / 122 m 14.59083˚ -61.02278˚ 1 nm 1 nm 269° / 269° MARTINIQUE VOR-DME
EMOLA FIX A555 (AWY-LO) 16,800 ft / 5,121 m 15.13528˚ -61.64639˚ 48 nm 49 nm 312° / 312° -
DUNTA FIX A555 (AWY-LO) 24,500 ft / 7,468 m 15.60889˚ -62.19306˚ 42 nm 92 nm 312° / 312° -
ILURI FIX UA555 (AWY-HI) 34,000 ft / 10,363 m 16.30000˚ -63.00000˚ 62 nm 154 nm 312° / 312° -
PORQE FIX A555 (AWY-HI) 34,000 ft / 10,363 m 17.15999˚ -64.01449˚ 77 nm 232 nm 312° / 311° -
COY VOR A555 (AWY-HI) 34,000 ft / 10,363 m 17.73444˚ -64.70072˚ 52 nm 285 nm 311° / 311° ST CROIX VOR-DME
TUUNA FIX A555 (AWY-HI) 34,000 ft / 10,363 m 17.98088˚ -65.88613˚ 69 nm 354 nm 283° / 282° -
MIGHT FIX RTE4 (AWY-LO) 18,000 ft / 5,486 m 18.16499˚ -66.31834˚ 27 nm 381 nm 294° / 294° -
JOSHE FIX RTE4 (AWY-LO) 18,000 ft / 5,486 m 18.24237˚ -66.50098˚ 11 nm 392 nm 294° / 294° -
BQN VOR RTE4 (AWY-LO) 18,000 ft / 5,486 m 18.49800˚ -67.10836˚ 37 nm 430 nm 294° / 294° BORINQUEN VORTAC
KATOK FIX A636 (AWY-HI) 20,700 ft / 6,309 m 18.83076˚ -68.00000˚ 54 nm 485 nm 292° / 291° -
O MDCY APT - 0 ft / 0 m 19.26492˚ -69.73208˚ 101 nm 587 nm 285° / 285° Samana El Catey International

Altitude Profile

Advertisement - Login to hide

Weather


0- 5 10 15 20 25 30 35+ Temperature / ° C

Clouds and Precipitation
Forecast for 2017-12-14 18:00 UTC. Updated 12 minutes ago

Ground ~20,000 ft ~40,000 ft Winds

TFFF

Details ICAO TFFF (FDF)
Name Martinique/Aime Cesaire Intl
Region France (Guadeloupe, Martinique, Saint Barthélemy, Saint Martin)
Timezone America/Martinique (UTC-4.0)
Stats Elevation 16 ft / 5 m (AMSL)
Location 14.591032° -61.003173°
Runways 1
Magnetic Variation 15.058° W

METAR

TFFF 141530Z AUTO 11013KT 9999 FEW034 30/22 Q1016 NOSIG

Decode

TAF

TAF TFFF 141100Z 1412/1512 08010KT 9999 SCT030 PROB30 TEMPO 1421/1512 4000 SHRA FEW015TCU

Decode

Departure Runways

ID Width Length Bearing (true) Bearing (mag) Surface Threshold Offset Overrun Length
09 148 ft / 45 m 9,852 ft / 3,003 m 79.93° 94.99° Asphalt 0 ft / 0 m 0 ft / 0 m
27 148 ft / 45 m 9,852 ft / 3,003 m 259.94° 275.00° Asphalt 820 ft / 250 m 948 ft / 289 m

MDCY

Details ICAO MDCY (AZS)
Name Samana El Catey International
Region Dominican Republic
Timezone America/Santo_Domingo (UTC-4.0)
Stats Elevation 12 ft / 4 m (AMSL)
Location 19.264917° -69.732084°
Runways 1
Magnetic Variation 11.590° W

METAR

MDCY 141500Z 12005KT 9999 SCT018 27/24 Q1017 METAR MDAB 141500Z 09004KT 9999 SCT018 28/24 Q1018

Decode

TAF

Not found

Destination Runways

ID Width Length Bearing (true) Bearing (mag) Surface Threshold Offset Overrun Length
07 148 ft / 45 m 9,126 ft / 2,782 m 55.49° 67.08° Asphalt 0 ft / 0 m 200 ft / 61 m
25 148 ft / 45 m 9,126 ft / 2,782 m 235.50° 247.09° Asphalt 0 ft / 0 m 200 ft / 61 m